sensor_id;sensor_type;location;lat;lon;timestamp;temperature;humidity
1830;DHT22;914;48.118;11.600;2023-02-24T00:01:36;9.40;95.80
1830;DHT22;914;48.118;11.600;2023-02-24T00:04:06;9.50;95.90
1830;DHT22;914;48.118;11.600;2023-02-24T00:06:34;9.40;96.00
1830;DHT22;914;48.118;11.600;2023-02-24T00:09:24;9.40;95.90
1830;DHT22;914;48.118;11.600;2023-02-24T00:11:54;9.20;96.10
1830;DHT22;914;48.118;11.600;2023-02-24T00:14:23;9.10;96.50
1830;DHT22;914;48.118;11.600;2023-02-24T00:16:50;9.20;96.70
1830;DHT22;914;48.118;11.600;2023-02-24T00:19:18;9.30;96.60
1830;DHT22;914;48.118;11.600;2023-02-24T00:21:45;9.40;96.40
1830;DHT22;914;48.118;11.600;2023-02-24T00:24:12;9.50;96.10
1830;DHT22;914;48.118;11.600;2023-02-24T00:26:38;9.50;96.00
1830;DHT22;914;48.118;11.600;2023-02-24T00:29:06;9.50;95.80
1830;DHT22;914;48.118;11.600;2023-02-24T00:31:34;9.50;95.70
1830;DHT22;914;48.118;11.600;2023-02-24T00:34:05;9.40;95.40
1830;DHT22;914;48.118;11.600;2023-02-24T00:36:31;9.30;95.40
1830;DHT22;914;48.118;11.600;2023-02-24T00:39:01;9.30;95.50
1830;DHT22;914;48.118;11.600;2023-02-24T00:41:29;9.30;95.40
1830;DHT22;914;48.118;11.600;2023-02-24T00:44:04;9.20;95.30
1830;DHT22;914;48.118;11.600;2023-02-24T00:46:36;9.20;95.20
1830;DHT22;914;48.118;11.600;2023-02-24T00:49:05;9.10;95.30
1830;DHT22;914;48.118;11.600;2023-02-24T00:51:39;9.10;95.10
1830;DHT22;914;48.118;11.600;2023-02-24T00:54:05;9.00;95.20
1830;DHT22;914;48.118;11.600;2023-02-24T00:56:31;8.90;95.20
1830;DHT22;914;48.118;11.600;2023-02-24T00:58:58;8.80;95.10
1830;DHT22;914;48.118;11.600;2023-02-24T01:01:30;8.80;95.60
1830;DHT22;914;48.118;11.600;2023-02-24T01:03:57;8.80;95.50
1830;DHT22;914;48.118;11.600;2023-02-24T01:06:26;8.90;95.50
1830;DHT22;914;48.118;11.600;2023-02-24T01:08:54;8.90;95.40
1830;DHT22;914;48.118;11.600;2023-02-24T01:11:33;8.90;95.20
1830;DHT22;914;48.118;11.600;2023-02-24T01:14:21;8.80;95.10
1830;DHT22;914;48.118;11.600;2023-02-24T01:16:47;8.80;95.10
1830;DHT22;914;48.118;11.600;2023-02-24T01:19:19;8.70;95.10
1830;DHT22;914;48.118;11.600;2023-02-24T01:21:45;8.70;95.10
1830;DHT22;914;48.118;11.600;2023-02-24T01:24:12;8.60;95.10
1830;DHT22;914;48.118;11.600;2023-02-24T01:26:41;8.70;95.10
1830;DHT22;914;48.118;11.600;2023-02-24T01:29:07;8.50;95.10
1830;DHT22;914;48.118;11.600;2023-02-24T01:31:37;8.50;95.50
1830;DHT22;914;48.118;11.600;2023-02-24T01:34:03;8.40;95.70
1830;DHT22;914;48.118;11.600;2023-02-24T01:36:31;8.40;95.90
1830;DHT22;914;48.118;11.600;2023-02-24T01:38:58;8.50;95.80
1830;DHT22;914;48.118;11.600;2023-02-24T01:41:24;8.60;95.70
1830;DHT22;914;48.118;11.600;2023-02-24T01:44:04;8.60;95.40
1830;DHT22;914;48.118;11.600;2023-02-24T01:46:42;8.60;95.60
1830;DHT22;914;48.118;11.600;2023-02-24T01:49:14;8.70;95.70
1830;DHT22;914;48.118;11.600;2023-02-24T01:51:49;8.70;95.70
1830;DHT22;914;48.118;11.600;2023-02-24T01:54:18;8.70;95.30
1830;DHT22;914;48.118;11.600;2023-02-24T01:56:50;8.80;95.40
1830;DHT22;914;48.118;11.600;2023-02-24T01:59:17;8.80;95.80
1830;DHT22;914;48.118;11.600;2023-02-24T02:01:44;8.80;95.80
1830;DHT22;914;48.118;11.600;2023-02-24T02:04:19;8.80;96.10
1830;DHT22;914;48.118;11.600;2023-02-24T02:06:52;8.80;96.20
1830;DHT22;914;48.118;11.600;2023-02-24T02:09:19;8.80;96.10
1830;DHT22;914;48.118;11.600;2023-02-24T02:11:45;8.80;96.20
1830;DHT22;914;48.118;11.600;2023-02-24T02:14:18;8.80;96.00
1830;DHT22;914;48.118;11.600;2023-02-24T02:20:01;8.70;95.70
1830;DHT22;914;48.118;11.600;2023-02-24T02:25:47;8.70;95.70
1830;DHT22;914;48.118;11.600;2023-02-24T02:34:07;8.70;95.30
1830;DHT22;914;48.118;11.600;2023-02-24T02:39:41;8.50;95.10
1830;DHT22;914;48.118;11.600;2023-02-24T02:42:27;8.50;95.10
1830;DHT22;914;48.118;11.600;2023-02-24T02:45:12;8.40;95.00
1830;DHT22;914;48.118;11.600;2023-02-24T02:47:58;8.40;95.20
1830;DHT22;914;48.118;11.600;2023-02-24T02:53:14;8.40;95.10
1830;DHT22;914;48.118;11.600;2023-02-24T02:55:46;8.40;95.20
1830;DHT22;914;48.118;11.600;2023-02-24T02:58:18;8.30;95.20
1830;DHT22;914;48.118;11.600;2023-02-24T03:00:52;8.30;95.10
1830;DHT22;914;48.118;11.600;2023-02-24T03:03:42;8.20;95.20
1830;DHT22;914;48.118;11.600;2023-02-24T03:06:18;8.20;95.10
1830;DHT22;914;48.118;11.600;2023-02-24T03:09:02;8.10;95.10
1830;DHT22;914;48.118;11.600;2023-02-24T03:11:38;8.10;95.30
1830;DHT22;914;48.118;11.600;2023-02-24T03:14:04;8.00;95.20
1830;DHT22;914;48.118;11.600;2023-02-24T03:16:38;7.90;95.20
1830;DHT22;914;48.118;11.600;2023-02-24T03:19:07;7.80;95.70
1830;DHT22;914;48.118;11.600;2023-02-24T03:21:38;7.90;96.00
1830;DHT22;914;48.118;11.600;2023-02-24T03:24:05;7.80;96.20
1830;DHT22;914;48.118;11.600;2023-02-24T03:26:51;7.80;96.10
1830;DHT22;914;48.118;11.600;2023-02-24T03:29:57;7.80;96.10
1830;DHT22;914;48.118;11.600;2023-02-24T03:32:37;7.90;96.30
1830;DHT22;914;48.118;11.600;2023-02-24T03:35:24;8.00;96.10
1830;DHT22;914;48.118;11.600;2023-02-24T03:37:52;8.00;95.90
1830;DHT22;914;48.118;11.600;2023-02-24T03:40:20;8.00;95.70
1830;DHT22;914;48.118;11.600;2023-02-24T03:42:49;8.00;95.60
1830;DHT22;914;48.118;11.600;2023-02-24T03:45:16;7.90;95.50
1830;DHT22;914;48.118;11.600;2023-02-24T03:47:42;7.90;95.40
1830;DHT22;914;48.118;11.600;2023-02-24T03:50:19;7.90;95.40
1830;DHT22;914;48.118;11.600;2023-02-24T03:53:06;7.80;95.20
1830;DHT22;914;48.118;11.600;2023-02-24T04:04:01;7.70;95.80
1830;DHT22;914;48.118;11.600;2023-02-24T04:14:31;7.70;95.60
1830;DHT22;914;48.118;11.600;2023-02-24T04:17:10;7.80;95.70
1830;DHT22;914;48.118;11.600;2023-02-24T04:19:41;7.80;95.70
1830;DHT22;914;48.118;11.600;2023-02-24T04:22:10;7.70;95.40
1830;DHT22;914;48.118;11.600;2023-02-24T04:24:38;7.30;95.90
1830;DHT22;914;48.118;11.600;2023-02-24T04:27:08;7.20;96.50
1830;DHT22;914;48.118;11.600;2023-02-24T04:29:40;7.20;96.80
1830;DHT22;914;48.118;11.600;2023-02-24T04:32:13;7.40;96.90
1830;DHT22;914;48.118;11.600;2023-02-24T04:34:41;7.60;96.90
1830;DHT22;914;48.118;11.600;2023-02-24T04:37:07;7.70;96.50
1830;DHT22;914;48.118;11.600;2023-02-24T04:39:34;7.80;96.40
1830;DHT22;914;48.118;11.600;2023-02-24T04:42:03;7.80;95.90
1830;DHT22;914;48.118;11.600;2023-02-24T04:44:29;7.80;95.80
1830;DHT22;914;48.118;11.600;2023-02-24T04:46:57;7.80;95.80
1830;DHT22;914;48.118;11.600;2023-02-24T04:49:24;7.90;95.80
1830;DHT22;914;48.118;11.600;2023-02-24T04:51:51;7.90;95.70
1830;DHT22;914;48.118;11.600;2023-02-24T04:54:18;7.90;95.50
1830;DHT22;914;48.118;11.600;2023-02-24T04:56:48;7.90;95.60
1830;DHT22;914;48.118;11.600;2023-02-24T04:59:16;8.00;95.60
1830;DHT22;914;48.118;11.600;2023-02-24T05:01:42;8.00;95.40
1830;DHT22;914;48.118;11.600;2023-02-24T05:04:10;8.10;95.40
1830;DHT22;914;48.118;11.600;2023-02-24T05:06:36;8.00;95.50
1830;DHT22;914;48.118;11.600;2023-02-24T05:09:14;7.90;95.60
1830;DHT22;914;48.118;11.600;2023-02-24T05:11:46;7.80;96.00
1830;DHT22;914;48.118;11.600;2023-02-24T05:14:14;7.70;95.90
1830;DHT22;914;48.118;11.600;2023-02-24T05:16:41;7.90;96.00
1830;DHT22;914;48.118;11.600;2023-02-24T05:19:12;7.90;95.80
1830;DHT22;914;48.118;11.600;2023-02-24T05:21:57;8.00;95.80
1830;DHT22;914;48.118;11.600;2023-02-24T05:24:26;8.00;95.60
1830;DHT22;914;48.118;11.600;2023-02-24T05:26:54;7.90;95.50
1830;DHT22;914;48.118;11.600;2023-02-24T05:29:30;7.70;95.90
1830;DHT22;914;48.118;11.600;2023-02-24T05:31:57;7.80;95.90
1830;DHT22;914;48.118;11.600;2023-02-24T05:34:25;7.80;95.90
1830;DHT22;914;48.118;11.600;2023-02-24T05:36:51;7.80;96.00
1830;DHT22;914;48.118;11.600;2023-02-24T05:39:18;7.90;95.60
1830;DHT22;914;48.118;11.600;2023-02-24T05:41:46;7.90;95.40
1830;DHT22;914;48.118;11.600;2023-02-24T05:44:20;7.90;95.30
1830;DHT22;914;48.118;11.600;2023-02-24T05:46:52;7.90;95.20
1830;DHT22;914;48.118;11.600;2023-02-24T05:49:24;7.80;95.30
1830;DHT22;914;48.118;11.600;2023-02-24T05:51:53;7.80;95.40
1830;DHT22;914;48.118;11.600;2023-02-24T05:56:47;7.70;95.50
1830;DHT22;914;48.118;11.600;2023-02-24T05:59:13;7.60;96.10
1830;DHT22;914;48.118;11.600;2023-02-24T06:01:46;7.60;96.30
1830;DHT22;914;48.118;11.600;2023-02-24T06:04:14;7.70;96.20
1830;DHT22;914;48.118;11.600;2023-02-24T06:06:47;7.70;96.10
1830;DHT22;914;48.118;11.600;2023-02-24T06:09:18;7.60;96.30
1830;DHT22;914;48.118;11.600;2023-02-24T06:11:44;7.60;96.40
1830;DHT22;914;48.118;11.600;2023-02-24T06:14:11;7.60;96.50
1830;DHT22;914;48.118;11.600;2023-02-24T06:16:39;7.50;96.60
1830;DHT22;914;48.118;11.600;2023-02-24T06:19:07;7.50;96.80
1830;DHT22;914;48.118;11.600;2023-02-24T06:21:35;7.60;96.60
1830;DHT22;914;48.118;11.600;2023-02-24T06:24:01;7.70;96.60
1830;DHT22;914;48.118;11.600;2023-02-24T06:26:27;7.90;96.30
1830;DHT22;914;48.118;11.600;2023-02-24T06:28:58;8.00;95.90
1830;DHT22;914;48.118;11.600;2023-02-24T06:31:25;7.90;95.90
1830;DHT22;914;48.118;11.600;2023-02-24T06:33:52;7.80;96.00
1830;DHT22;914;48.118;11.600;2023-02-24T06:36:19;7.70;96.30
1830;DHT22;914;48.118;11.600;2023-02-24T06:38:45;7.70;96.30
1830;DHT22;914;48.118;11.600;2023-02-24T06:41:12;7.80;96.20
1830;DHT22;914;48.118;11.600;2023-02-24T06:43:39;7.80;96.30
1830;DHT22;914;48.118;11.600;2023-02-24T06:46:06;7.90;96.00
1830;DHT22;914;48.118;11.600;2023-02-24T06:48:33;8.10;95.90
1830;DHT22;914;48.118;11.600;2023-02-24T06:51:13;8.20;95.80
1830;DHT22;914;48.118;11.600;2023-02-24T06:53:40;8.30;95.50
1830;DHT22;914;48.118;11.600;2023-02-24T06:56:12;8.30;95.40
1830;DHT22;914;48.118;11.600;2023-02-24T06:58:53;8.40;95.20
1830;DHT22;914;48.118;11.600;2023-02-24T07:01:26;8.40;95.10
1830;DHT22;914;48.118;11.600;2023-02-24T07:03:56;8.40;94.90
1830;DHT22;914;48.118;11.600;2023-02-24T07:06:50;8.40;95.00
1830;DHT22;914;48.118;11.600;2023-02-24T07:09:19;8.40;95.20
1830;DHT22;914;48.118;11.600;2023-02-24T07:11:46;8.50;95.10
1830;DHT22;914;48.118;11.600;2023-02-24T07:14:19;8.60;95.00
1830;DHT22;914;48.118;11.600;2023-02-24T07:16:46;8.70;94.90
1830;DHT22;914;48.118;11.600;2023-02-24T07:19:17;8.70;94.80
1830;DHT22;914;48.118;11.600;2023-02-24T07:21:44;8.70;95.50
1830;DHT22;914;48.118;11.600;2023-02-24T07:24:16;8.60;94.90
1830;DHT22;914;48.118;11.600;2023-02-24T07:26:55;8.80;95.20
1830;DHT22;914;48.118;11.600;2023-02-24T07:29:22;8.60;94.80
1830;DHT22;914;48.118;11.600;2023-02-24T07:31:56;8.60;95.30
1830;DHT22;914;48.118;11.600;2023-02-24T07:34:23;8.60;95.60
1830;DHT22;914;48.118;11.600;2023-02-24T07:36:51;8.60;95.60
1830;DHT22;914;48.118;11.600;2023-02-24T07:39:17;8.90;95.30
1830;DHT22;914;48.118;11.600;2023-02-24T07:41:44;9.20;95.30
1830;DHT22;914;48.118;11.600;2023-02-24T07:44:11;9.30;94.90
1830;DHT22;914;48.118;11.600;2023-02-24T07:46:38;9.20;94.70
1830;DHT22;914;48.118;11.600;2023-02-24T07:49:05;9.10;94.70
1830;DHT22;914;48.118;11.600;2023-02-24T07:51:34;9.10;95.10
1830;DHT22;914;48.118;11.600;2023-02-24T07:54:00;9.00;95.40
1830;DHT22;914;48.118;11.600;2023-02-24T07:56:28;9.10;95.30
1830;DHT22;914;48.118;11.600;2023-02-24T07:59:05;9.00;95.20
1830;DHT22;914;48.118;11.600;2023-02-24T08:01:34;9.10;95.10
1830;DHT22;914;48.118;11.600;2023-02-24T08:04:18;9.30;95.40
1830;DHT22;914;48.118;11.600;2023-02-24T08:06:51;9.30;94.90
1830;DHT22;914;48.118;11.600;2023-02-24T08:09:29;9.10;95.30
1830;DHT22;914;48.118;11.600;2023-02-24T08:12:14;9.00;95.60
1830;DHT22;914;48.118;11.600;2023-02-24T08:14:43;9.10;96.00
1830;DHT22;914;48.118;11.600;2023-02-24T08:17:10;9.10;95.80
1830;DHT22;914;48.118;11.600;2023-02-24T08:19:36;9.20;95.90
1830;DHT22;914;48.118;11.600;2023-02-24T08:22:10;9.70;95.70
1830;DHT22;914;48.118;11.600;2023-02-24T08:24:56;9.80;95.20
1830;DHT22;914;48.118;11.600;2023-02-24T08:27:27;9.90;95.60
1830;DHT22;914;48.118;11.600;2023-02-24T08:29:58;10.20;94.20
1830;DHT22;914;48.118;11.600;2023-02-24T08:32:33;9.90;95.10
1830;DHT22;914;48.118;11.600;2023-02-24T08:35:00;9.90;95.40
1830;DHT22;914;48.118;11.600;2023-02-24T08:37:29;9.80;95.60
1830;DHT22;914;48.118;11.600;2023-02-24T08:40:06;9.80;95.20
1830;DHT22;914;48.118;11.600;2023-02-24T08:42:32;10.00;94.40
1830;DHT22;914;48.118;11.600;2023-02-24T08:45:00;9.80;95.60
1830;DHT22;914;48.118;11.600;2023-02-24T08:47:27;9.70;95.40
1830;DHT22;914;48.118;11.600;2023-02-24T08:49:56;9.60;95.80
1830;DHT22;914;48.118;11.600;2023-02-24T08:52:25;9.80;95.80
1830;DHT22;914;48.118;11.600;2023-02-24T08:54:52;9.90;96.20
1830;DHT22;914;48.118;11.600;2023-02-24T08:57:25;10.00;95.40
1830;DHT22;914;48.118;11.600;2023-02-24T08:59:51;10.00;95.00
1830;DHT22;914;48.118;11.600;2023-02-24T09:02:24;9.90;96.30
1830;DHT22;914;48.118;11.600;2023-02-24T09:04:54;9.70;96.30
1830;DHT22;914;48.118;11.600;2023-02-24T09:07:26;10.00;96.00
1830;DHT22;914;48.118;11.600;2023-02-24T09:09:53;10.00;95.80
1830;DHT22;914;48.118;11.600;2023-02-24T09:12:24;9.90;96.70
1830;DHT22;914;48.118;11.600;2023-02-24T09:14:56;10.00;96.20
1830;DHT22;914;48.118;11.600;2023-02-24T09:17:24;10.30;95.60
1830;DHT22;914;48.118;11.600;2023-02-24T09:20:20;10.40;95.70
1830;DHT22;914;48.118;11.600;2023-02-24T09:22:57;10.70;95.40
1830;DHT22;914;48.118;11.600;2023-02-24T09:25:32;10.80;95.40
1830;DHT22;914;48.118;11.600;2023-02-24T09:28:25;11.10;94.90
1830;DHT22;914;48.118;11.600;2023-02-24T09:30:56;11.30;95.40
1830;DHT22;914;48.118;11.600;2023-02-24T09:35:54;12.20;94.70
1830;DHT22;914;48.118;11.600;2023-02-24T09:38:45;12.00;94.10
1830;DHT22;914;48.118;11.600;2023-02-24T09:41:45;11.90;94.90
1830;DHT22;914;48.118;11.600;2023-02-24T09:47:16;11.90;95.00
1830;DHT22;914;48.118;11.600;2023-02-24T09:52:39;11.80;95.30
1830;DHT22;914;48.118;11.600;2023-02-24T09:55:18;11.80;95.20
1830;DHT22;914;48.118;11.600;2023-02-24T10:03:54;12.50;94.30
1830;DHT22;914;48.118;11.600;2023-02-24T10:09:45;12.70;94.40
1830;DHT22;914;48.118;11.600;2023-02-24T10:14:45;12.70;93.90
1830;DHT22;914;48.118;11.600;2023-02-24T10:17:18;12.90;94.70
1830;DHT22;914;48.118;11.600;2023-02-24T10:19:58;13.50;93.60
1830;DHT22;914;48.118;11.600;2023-02-24T10:22:47;14.10;92.60
1830;DHT22;914;48.118;11.600;2023-02-24T10:25:25;13.50;92.60
1830;DHT22;914;48.118;11.600;2023-02-24T10:28:35;13.20;93.10
1830;DHT22;914;48.118;11.600;2023-02-24T10:30:49;13.10;93.50
1830;DHT22;914;48.118;11.600;2023-02-24T10:33:45;13.50;93.00
1830;DHT22;914;48.118;11.600;2023-02-24T10:36:18;13.60;92.40
1830;DHT22;914;48.118;11.600;2023-02-24T10:38:51;13.60;92.80
1830;DHT22;914;48.118;11.600;2023-02-24T10:41:21;13.50;92.80
1830;DHT22;914;48.118;11.600;2023-02-24T10:43:55;13.60;92.70
1830;DHT22;914;48.118;11.600;2023-02-24T10:46:30;13.40;93.10
1830;DHT22;914;48.118;11.600;2023-02-24T10:49:01;13.70;92.80
1830;DHT22;914;48.118;11.600;2023-02-24T10:51:41;13.50;92.50
1830;DHT22;914;48.118;11.600;2023-02-24T10:54:23;13.60;92.20
1830;DHT22;914;48.118;11.600;2023-02-24T10:57:04;13.50;92.20
1830;DHT22;914;48.118;11.600;2023-02-24T10:59:58;13.40;92.50
1830;DHT22;914;48.118;11.600;2023-02-24T11:02:35;13.20;92.20
1830;DHT22;914;48.118;11.600;2023-02-24T11:05:22;13.00;92.40
1830;DHT22;914;48.118;11.600;2023-02-24T11:08:18;13.10;92.60
1830;DHT22;914;48.118;11.600;2023-02-24T11:11:18;13.30;92.80
1830;DHT22;914;48.118;11.600;2023-02-24T11:13:51;13.60;92.20
1830;DHT22;914;48.118;11.600;2023-02-24T11:16:53;14.20;91.80
1830;DHT22;914;48.118;11.600;2023-02-24T11:19:49;14.00;91.00
1830;DHT22;914;48.118;11.600;2023-02-24T11:22:34;14.10;90.80
1830;DHT22;914;48.118;11.600;2023-02-24T11:25:21;14.00;91.10
1830;DHT22;914;48.118;11.600;2023-02-24T11:27:47;14.00;91.10
1830;DHT22;914;48.118;11.600;2023-02-24T11:30:44;14.20;90.40
1830;DHT22;914;48.118;11.600;2023-02-24T11:36:15;14.10;89.80
1830;DHT22;914;48.118;11.600;2023-02-24T11:41:48;14.10;90.30
1830;DHT22;914;48.118;11.600;2023-02-24T11:44:26;14.00;90.20
1830;DHT22;914;48.118;11.600;2023-02-24T11:46:58;14.20;90.10
1830;DHT22;914;48.118;11.600;2023-02-24T11:51:54;13.90;90.10
1830;DHT22;914;48.118;11.600;2023-02-24T11:54:21;13.50;90.60
1830;DHT22;914;48.118;11.600;2023-02-24T11:56:57;13.40;90.90
1830;DHT22;914;48.118;11.600;2023-02-24T11:59:39;13.70;90.50
1830;DHT22;914;48.118;11.600;2023-02-24T12:07:34;13.60;90.90
1830;DHT22;914;48.118;11.600;2023-02-24T12:10:23;13.40;90.90
1830;DHT22;914;48.118;11.600;2023-02-24T12:15:39;13.20;91.50
1830;DHT22;914;48.118;11.600;2023-02-24T12:18:34;13.30;91.80
1830;DHT22;914;48.118;11.600;2023-02-24T12:21:22;13.40;91.20
1830;DHT22;914;48.118;11.600;2023-02-24T12:23:55;13.50;91.10
1830;DHT22;914;48.118;11.600;2023-02-24T12:26:33;13.50;91.20
1830;DHT22;914;48.118;11.600;2023-02-24T12:32:13;13.20;91.80
1830;DHT22;914;48.118;11.600;2023-02-24T12:35:04;13.20;91.90
1830;DHT22;914;48.118;11.600;2023-02-24T12:43:44;13.40;91.90
1830;DHT22;914;48.118;11.600;2023-02-24T12:46:28;13.60;91.40
1830;DHT22;914;48.118;11.600;2023-02-24T12:57:04;13.50;91.60
1830;DHT22;914;48.118;11.600;2023-02-24T12:59:38;13.80;91.40
1830;DHT22;914;48.118;11.600;2023-02-24T13:05:11;13.70;91.40
1830;DHT22;914;48.118;11.600;2023-02-24T13:07:51;13.50;91.80
1830;DHT22;914;48.118;11.600;2023-02-24T13:13:24;13.70;91.70
1830;DHT22;914;48.118;11.600;2023-02-24T13:15:57;13.80;91.80
1830;DHT22;914;48.118;11.600;2023-02-24T13:18:28;13.80;91.50
1830;DHT22;914;48.118;11.600;2023-02-24T13:21:18;14.00;91.30
1830;DHT22;914;48.118;11.600;2023-02-24T13:24:00;13.90;91.40
1830;DHT22;914;48.118;11.600;2023-02-24T13:26:29;13.70;91.70
1830;DHT22;914;48.118;11.600;2023-02-24T13:29:08;13.80;91.80
1830;DHT22;914;48.118;11.600;2023-02-24T13:31:46;13.80;91.50
1830;DHT22;914;48.118;11.600;2023-02-24T13:34:40;13.50;92.20
1830;DHT22;914;48.118;11.600;2023-02-24T13:37:08;13.50;91.90
1830;DHT22;914;48.118;11.600;2023-02-24T13:39:39;13.50;92.30
1830;DHT22;914;48.118;11.600;2023-02-24T13:42:25;13.50;92.40
1830;DHT22;914;48.118;11.600;2023-02-24T13:45:04;13.60;92.10
1830;DHT22;914;48.118;11.600;2023-02-24T14:01:56;13.80;91.80
1830;DHT22;914;48.118;11.600;2023-02-24T14:04:25;13.10;92.70
1830;DHT22;914;48.118;11.600;2023-02-24T14:06:54;13.20;93.00
1830;DHT22;914;48.118;11.600;2023-02-24T14:09:43;12.80;93.40
1830;DHT22;914;48.118;11.600;2023-02-24T14:12:29;12.80;94.40
1830;DHT22;914;48.118;11.600;2023-02-24T14:14:56;12.70;94.40
1830;DHT22;914;48.118;11.600;2023-02-24T14:17:28;12.70;94.80
1830;DHT22;914;48.118;11.600;2023-02-24T14:25:14;12.70;95.00
1830;DHT22;914;48.118;11.600;2023-02-24T14:27:43;12.60;95.40
1830;DHT22;914;48.118;11.600;2023-02-24T14:30:26;12.80;95.20
1830;DHT22;914;48.118;11.600;2023-02-24T14:32:53;12.60;95.60
1830;DHT22;914;48.118;11.600;2023-02-24T14:35:32;12.70;95.40
1830;DHT22;914;48.118;11.600;2023-02-24T14:37:58;12.80;94.90
1830;DHT22;914;48.118;11.600;2023-02-24T14:40:24;12.90;95.10
1830;DHT22;914;48.118;11.600;2023-02-24T14:42:51;13.00;94.90
1830;DHT22;914;48.118;11.600;2023-02-24T14:45:22;12.60;94.90
1830;DHT22;914;48.118;11.600;2023-02-24T14:47:53;12.30;95.80
1830;DHT22;914;48.118;11.600;2023-02-24T14:50:28;12.20;96.30
1830;DHT22;914;48.118;11.600;2023-02-24T14:53:08;12.30;96.10
1830;DHT22;914;48.118;11.600;2023-02-24T14:55:40;12.00;97.00
1830;DHT22;914;48.118;11.600;2023-02-24T14:58:35;12.40;97.10
1830;DHT22;914;48.118;11.600;2023-02-24T15:01:19;12.10;97.30
1830;DHT22;914;48.118;11.600;2023-02-24T15:03:48;12.20;97.50
1830;DHT22;914;48.118;11.600;2023-02-24T15:06:25;11.90;98.90
1830;DHT22;914;48.118;11.600;2023-02-24T15:09:03;11.90;99.30
1830;DHT22;914;48.118;11.600;2023-02-24T15:11:31;11.80;99.90
1830;DHT22;914;48.118;11.600;2023-02-24T15:14:06;11.70;99.90
1830;DHT22;914;48.118;11.600;2023-02-24T15:16:44;11.60;99.90
1830;DHT22;914;48.118;11.600;2023-02-24T15:19:35;11.70;99.90
1830;DHT22;914;48.118;11.600;2023-02-24T15:22:32;11.60;99.90
1830;DHT22;914;48.118;11.600;2023-02-24T15:28:00;11.70;99.90
1830;DHT22;914;48.118;11.600;2023-02-24T15:30:39;11.60;99.90
1830;DHT22;914;48.118;11.600;2023-02-24T15:33:23;11.50;99.90
1830;DHT22;914;48.118;11.600;2023-02-24T15:35:51;11.50;99.90
1830;DHT22;914;48.118;11.600;2023-02-24T15:38:29;11.60;99.90
1830;DHT22;914;48.118;11.600;2023-02-24T15:40:59;11.80;99.90
1830;DHT22;914;48.118;11.600;2023-02-24T15:46:29;11.80;99.90
1830;DHT22;914;48.118;11.600;2023-02-24T15:48:55;11.70;99.90
1830;DHT22;914;48.118;11.600;2023-02-24T15:51:37;11.60;99.90
1830;DHT22;914;48.118;11.600;2023-02-24T15:54:06;11.60;99.90
1830;DHT22;914;48.118;11.600;2023-02-24T15:56:33;11.80;99.90
1830;DHT22;914;48.118;11.600;2023-02-24T15:58:59;11.90;99.90
1830;DHT22;914;48.118;11.600;2023-02-24T16:01:27;11.70;99.90
1830;DHT22;914;48.118;11.600;2023-02-24T16:03:53;11.90;99.90
1830;DHT22;914;48.118;11.600;2023-02-24T16:06:20;12.00;99.90
1830;DHT22;914;48.118;11.600;2023-02-24T16:08:48;11.80;99.90
1830;DHT22;914;48.118;11.600;2023-02-24T16:11:16;11.80;99.90
1830;DHT22;914;48.118;11.600;2023-02-24T16:13:49;11.70;99.90
1830;DHT22;914;48.118;11.600;2023-02-24T16:16:17;11.60;99.90
1830;DHT22;914;48.118;11.600;2023-02-24T16:18:43;11.60;99.90
1830;DHT22;914;48.118;11.600;2023-02-24T16:21:09;11.80;99.90
1830;DHT22;914;48.118;11.600;2023-02-24T16:23:35;11.60;99.90
1830;DHT22;914;48.118;11.600;2023-02-24T16:26:16;11.60;99.90
1830;DHT22;914;48.118;11.600;2023-02-24T16:28:45;11.50;99.90
1830;DHT22;914;48.118;11.600;2023-02-24T16:31:12;11.40;99.90
1830;DHT22;914;48.118;11.600;2023-02-24T16:33:38;11.40;99.90
1830;DHT22;914;48.118;11.600;2023-02-24T16:36:09;11.50;99.90
1830;DHT22;914;48.118;11.600;2023-02-24T16:38:36;11.50;99.90
1830;DHT22;914;48.118;11.600;2023-02-24T16:41:02;11.30;99.90
1830;DHT22;914;48.118;11.600;2023-02-24T16:43:28;10.80;99.90
1830;DHT22;914;48.118;11.600;2023-02-24T16:46:00;11.00;99.90
1830;DHT22;914;48.118;11.600;2023-02-24T16:48:27;10.80;99.90
1830;DHT22;914;48.118;11.600;2023-02-24T16:50:54;10.60;99.90
1830;DHT22;914;48.118;11.600;2023-02-24T16:53:21;10.50;99.90
1830;DHT22;914;48.118;11.600;2023-02-24T16:55:49;10.60;99.90
1830;DHT22;914;48.118;11.600;2023-02-24T16:58:15;10.80;99.90
1830;DHT22;914;48.118;11.600;2023-02-24T17:00:44;10.60;99.90
1830;DHT22;914;48.118;11.600;2023-02-24T17:03:22;10.80;99.90
1830;DHT22;914;48.118;11.600;2023-02-24T17:05:49;10.80;99.90
1830;DHT22;914;48.118;11.600;2023-02-24T17:08:15;10.70;99.90
1830;DHT22;914;48.118;11.600;2023-02-24T17:10:42;10.60;99.90
1830;DHT22;914;48.118;11.600;2023-02-24T17:13:12;10.40;99.90
1830;DHT22;914;48.118;11.600;2023-02-24T17:15:38;10.40;99.90
1830;DHT22;914;48.118;11.600;2023-02-24T17:18:05;10.60;99.90
1830;DHT22;914;48.118;11.600;2023-02-24T17:20:32;10.20;99.90
1830;DHT22;914;48.118;11.600;2023-02-24T17:22:58;9.70;99.90
1830;DHT22;914;48.118;11.600;2023-02-24T17:25:26;9.70;99.90
1830;DHT22;914;48.118;11.600;2023-02-24T17:27:53;9.80;99.90
1830;DHT22;914;48.118;11.600;2023-02-24T17:30:22;9.60;99.90
1830;DHT22;914;48.118;11.600;2023-02-24T17:32:48;9.80;99.90
1830;DHT22;914;48.118;11.600;2023-02-24T17:35:13;9.60;99.90
1830;DHT22;914;48.118;11.600;2023-02-24T17:37:39;9.40;99.90
1830;DHT22;914;48.118;11.600;2023-02-24T17:40:06;9.30;99.90
1830;DHT22;914;48.118;11.600;2023-02-24T17:42:32;9.20;99.90
1830;DHT22;914;48.118;11.600;2023-02-24T17:44:58;9.30;99.90
1830;DHT22;914;48.118;11.600;2023-02-24T17:47:24;9.20;99.90
1830;DHT22;914;48.118;11.600;2023-02-24T17:49:51;9.20;99.90
1830;DHT22;914;48.118;11.600;2023-02-24T17:52:17;9.30;99.90
1830;DHT22;914;48.118;11.600;2023-02-24T17:54:43;9.20;99.90
1830;DHT22;914;48.118;11.600;2023-02-24T17:57:08;9.10;99.90
1830;DHT22;914;48.118;11.600;2023-02-24T17:59:36;9.30;99.90
1830;DHT22;914;48.118;11.600;2023-02-24T18:02:03;9.30;99.90
1830;DHT22;914;48.118;11.600;2023-02-24T18:04:29;9.30;99.90
1830;DHT22;914;48.118;11.600;2023-02-24T18:06:58;9.40;99.90
1830;DHT22;914;48.118;11.600;2023-02-24T18:09:26;9.60;99.90
1830;DHT22;914;48.118;11.600;2023-02-24T18:11:55;9.40;99.90
1830;DHT22;914;48.118;11.600;2023-02-24T18:14:21;9.70;99.90
1830;DHT22;914;48.118;11.600;2023-02-24T18:16:47;9.70;99.90
1830;DHT22;914;48.118;11.600;2023-02-24T18:19:12;9.70;99.90
1830;DHT22;914;48.118;11.600;2023-02-24T18:21:39;9.60;99.90
1830;DHT22;914;48.118;11.600;2023-02-24T18:24:07;9.50;99.90
1830;DHT22;914;48.118;11.600;2023-02-24T18:26:32;9.70;99.90
1830;DHT22;914;48.118;11.600;2023-02-24T18:28:59;9.60;99.90
1830;DHT22;914;48.118;11.600;2023-02-24T18:31:26;9.60;99.90
1830;DHT22;914;48.118;11.600;2023-02-24T18:33:52;9.60;99.90
1830;DHT22;914;48.118;11.600;2023-02-24T18:36:19;9.60;99.90
1830;DHT22;914;48.118;11.600;2023-02-24T18:38:45;9.60;99.90
1830;DHT22;914;48.118;11.600;2023-02-24T18:41:16;9.70;99.90
1830;DHT22;914;48.118;11.600;2023-02-24T18:43:46;9.50;99.90
1830;DHT22;914;48.118;11.600;2023-02-24T18:46:15;9.60;99.90
1830;DHT22;914;48.118;11.600;2023-02-24T18:48:41;9.70;99.90